createdAt,value
2022-10-19T00:04:08.778Z,11.02
2022-10-19T00:09:14.486Z,9.62
2022-10-19T00:14:21.397Z,10.92
2022-10-19T00:19:26.810Z,8.24
2022-10-19T00:24:29.690Z,11.05
2022-10-19T00:29:33.986Z,11.07
2022-10-19T00:34:36.879Z,11.07
2022-10-19T00:39:40.242Z,10.38
2022-10-19T00:45:07.890Z,9.76
2022-10-19T00:50:11.648Z,9.51
2022-10-19T00:55:14.859Z,10.85
2022-10-19T01:00:19.012Z,10.83
2022-10-19T01:05:22.297Z,10.64
2022-10-19T01:10:34.125Z,9.95
2022-10-19T01:15:47.901Z,8.82
2022-10-19T01:21:22.306Z,10.75
2022-10-19T01:26:41.417Z,10.61
2022-10-19T01:31:49.896Z,8.90
2022-10-19T01:37:01.703Z,9.57
2022-10-19T01:42:13.657Z,10.71
2022-10-19T01:47:23.685Z,10.57
2022-10-19T01:52:28.219Z,9.21
2022-10-19T01:57:34.428Z,7.66
2022-10-19T02:02:42.164Z,9.72
2022-10-19T02:07:49.469Z,10.56
2022-10-19T02:12:55.244Z,10.60
2022-10-19T02:18:02.010Z,10.66
2022-10-19T02:23:08.149Z,8.87
2022-10-19T02:28:21.431Z,10.62
2022-10-19T02:33:26.245Z,9.03
2022-10-19T02:38:29.519Z,10.54
2022-10-19T02:43:34.873Z,8.99
2022-10-19T02:48:40.114Z,9.99
2022-10-19T02:53:42.848Z,9.90
2022-10-19T02:58:46.304Z,8.99
2022-10-19T03:03:50.384Z,10.28
2022-10-19T03:09:07.223Z,9.92
2022-10-19T03:14:12.795Z,10.09
2022-10-19T03:19:17.765Z,9.98
2022-10-19T03:24:20.956Z,7.02
2022-10-19T03:29:25.448Z,8.89
2022-10-19T03:34:32.463Z,8.74
2022-10-19T03:39:35.838Z,9.74
2022-10-19T03:44:39.257Z,7.93
2022-10-19T03:49:45.293Z,9.78
2022-10-19T03:54:51.915Z,9.25
2022-10-19T03:59:57.581Z,8.70
2022-10-19T04:05:01.823Z,9.81
2022-10-19T04:10:05.170Z,7.15
2022-10-19T04:15:10.415Z,8.48
2022-10-19T04:20:18.887Z,8.16
2022-10-19T04:25:22.055Z,9.11
2022-10-19T04:30:24.975Z,10.04
2022-10-19T04:35:29.250Z,7.09
2022-10-19T04:40:32.174Z,9.41
2022-10-19T04:45:36.640Z,9.68
2022-10-19T04:50:41.024Z,9.03
2022-10-19T04:55:44.947Z,8.12
2022-10-19T05:00:48.351Z,9.17
2022-10-19T05:05:52.612Z,7.02
2022-10-19T05:10:55.531Z,9.02
2022-10-19T05:15:58.589Z,8.73
2022-10-19T05:21:04.493Z,8.45
2022-10-19T05:26:50.590Z,9.80
2022-10-19T05:31:53.575Z,8.77
2022-10-19T05:36:57.833Z,7.78
2022-10-19T05:42:06.924Z,8.10
2022-10-19T05:47:11.359Z,9.37
2022-10-19T05:52:41.316Z,9.38
2022-10-19T05:57:44.286Z,9.14
2022-10-19T06:02:47.233Z,7.01
2022-10-19T06:07:51.428Z,9.11
2022-10-19T06:12:54.222Z,9.37
2022-10-19T06:17:57.325Z,7.84
2022-10-19T06:23:02.442Z,6.64
2022-10-19T06:28:05.818Z,7.59
2022-10-19T06:33:13.055Z,9.27
2022-10-19T06:38:21.180Z,7.75
2022-10-19T06:43:30.159Z,9.30
2022-10-19T06:48:36.366Z,6.63
2022-10-19T06:53:40.573Z,7.17
2022-10-19T06:58:46.414Z,7.92
2022-10-19T07:03:51.076Z,8.56
2022-10-19T07:08:57.615Z,9.41
2022-10-19T07:14:02.703Z,9.00
2022-10-19T07:19:08.156Z,7.12
2022-10-19T07:24:16.564Z,8.32
2022-10-19T07:29:31.410Z,10.06
2022-10-19T07:34:40.827Z,10.23
2022-10-19T07:39:51.655Z,10.40
2022-10-19T07:44:57.518Z,8.99
2022-10-19T07:50:00.319Z,9.45
2022-10-19T07:55:04.989Z,10.79
2022-10-19T08:00:13.181Z,10.03
2022-10-19T08:05:17.259Z,9.70
2022-10-19T08:10:21.691Z,11.20
2022-10-19T08:15:26.104Z,11.25
2022-10-19T08:20:29.174Z,10.47
2022-10-19T08:25:33.451Z,11.35
2022-10-19T08:30:39.228Z,10.61
2022-10-19T08:35:42.131Z,9.99
2022-10-19T08:40:48.138Z,11.89
2022-10-19T08:46:00.152Z,10.43
2022-10-19T08:51:04.283Z,12.07
2022-10-19T08:56:38.821Z,12.29
2022-10-19T09:01:49.226Z,12.29
2022-10-19T09:07:02.803Z,12.65
2022-10-19T09:12:11.178Z,12.42
2022-10-19T09:17:16.884Z,12.85
2022-10-19T09:22:21.463Z,11.73
2022-10-19T09:27:31.702Z,13.12
2022-10-19T09:32:37.905Z,13.24
2022-10-19T09:37:46.874Z,13.03
2022-10-19T09:42:56.982Z,11.87
2022-10-19T09:48:07.126Z,13.38
2022-10-19T09:53:20.497Z,13.50
2022-10-19T09:58:30.462Z,12.27
2022-10-19T10:03:40.417Z,12.97
2022-10-19T10:08:48.640Z,11.67
2022-10-19T10:13:54.865Z,13.51
2022-10-19T10:19:01.513Z,13.75
2022-10-19T10:24:06.872Z,12.53
2022-10-19T10:29:25.078Z,13.22
2022-10-19T10:34:49.844Z,13.95
2022-10-19T10:40:03.951Z,14.00
2022-10-19T10:45:18.671Z,13.88
2022-10-19T10:50:25.197Z,13.69
2022-10-19T10:55:29.006Z,14.55
2022-10-19T11:00:35.588Z,14.70
2022-10-19T11:05:44.716Z,14.11
2022-10-19T11:10:55.015Z,14.49
2022-10-19T11:16:07.174Z,14.79
2022-10-19T11:21:21.733Z,12.50
2022-10-19T11:26:42.932Z,14.60
2022-10-19T11:31:53.076Z,14.44
2022-10-19T11:37:03.270Z,15.01
2022-10-19T11:42:14.698Z,15.10
2022-10-19T11:47:34.550Z,15.52
2022-10-19T11:52:47.709Z,15.89
2022-10-19T11:57:57.876Z,16.29
2022-10-19T12:03:28.225Z,16.34
2022-10-19T12:08:45.554Z,16.84
2022-10-19T12:13:52.369Z,16.85
2022-10-19T12:19:00.353Z,16.80
2022-10-19T12:24:06.033Z,17.07
2022-10-19T12:29:16.573Z,15.50
2022-10-19T12:34:31.868Z,16.88
2022-10-19T12:39:41.937Z,17.01
2022-10-19T12:45:25.082Z,17.63
2022-10-19T12:51:15.604Z,18.17
2022-10-19T12:56:24.966Z,18.32
2022-10-19T13:01:41.066Z,18.37
2022-10-19T13:06:46.872Z,18.18
2022-10-19T13:12:29.615Z,18.76
2022-10-19T13:17:44.016Z,18.58
2022-10-19T13:22:49.103Z,18.71
2022-10-19T13:27:54.514Z,19.10
2022-10-19T13:32:57.275Z,17.53
2022-10-19T13:38:27.986Z,18.79
2022-10-19T13:43:35.431Z,18.62
2022-10-19T13:49:09.959Z,18.08
2022-10-19T13:54:32.832Z,17.59
2022-10-19T14:00:15.256Z,17.20
2022-10-19T14:11:00.210Z,17.01
2022-10-19T14:16:18.135Z,17.11
2022-10-19T14:21:30.725Z,16.56
2022-10-19T14:26:35.555Z,16.85
2022-10-19T14:31:40.096Z,15.62
2022-10-19T14:36:46.402Z,15.47
2022-10-19T14:41:54.767Z,16.28
2022-10-19T14:47:03.243Z,16.18
2022-10-19T14:52:06.493Z,15.29
2022-10-19T14:57:16.137Z,15.53
2022-10-19T15:02:24.065Z,15.75
2022-10-19T15:07:35.243Z,15.56
2022-10-19T15:12:40.960Z,14.38
2022-10-19T15:17:53.979Z,15.84
2022-10-19T15:22:57.508Z,15.10
2022-10-19T15:28:39.008Z,14.74
2022-10-19T15:33:52.291Z,14.46
2022-10-19T15:39:17.501Z,14.90
2022-10-19T15:44:33.834Z,15.79
2022-10-19T15:50:01.341Z,15.70
2022-10-19T15:55:04.123Z,15.61
2022-10-19T16:00:13.104Z,15.50
2022-10-19T16:05:17.436Z,15.05
2022-10-19T16:10:22.907Z,14.36
2022-10-19T16:15:26.642Z,15.07
2022-10-19T16:20:31.132Z,14.95
2022-10-19T16:25:33.797Z,14.81
2022-10-19T16:30:36.503Z,14.44
2022-10-19T16:35:40.490Z,14.53
2022-10-19T16:40:43.306Z,14.25
2022-10-19T16:45:46.180Z,13.91
2022-10-19T16:51:20.552Z,14.33
2022-10-19T16:56:23.250Z,14.21
2022-10-19T17:01:26.436Z,14.03
2022-10-19T17:06:30.554Z,13.74
2022-10-19T17:11:35.004Z,14.12
2022-10-19T17:16:38.895Z,14.12
2022-10-19T17:21:42.884Z,13.74
2022-10-19T17:26:46.157Z,13.62
2022-10-19T17:31:49.319Z,14.07
2022-10-19T17:36:53.408Z,14.03
2022-10-19T17:41:57.422Z,13.90
2022-10-19T17:47:01.270Z,13.94
2022-10-19T17:52:07.637Z,12.87
2022-10-19T17:57:23.116Z,12.75
2022-10-19T18:02:27.732Z,12.88
2022-10-19T18:08:00.547Z,13.21
2022-10-19T18:20:22.087Z,11.37
2022-10-19T18:26:08.618Z,13.48
2022-10-19T18:38:00.821Z,13.40
2022-10-19T18:43:07.620Z,12.46
2022-10-19T18:48:11.620Z,11.99
2022-10-19T18:53:14.894Z,12.00
2022-10-19T18:58:19.579Z,12.43
2022-10-19T19:03:28.065Z,13.02
2022-10-19T19:08:35.723Z,12.73
2022-10-19T19:14:05.584Z,12.53
2022-10-19T19:19:12.361Z,12.84
2022-10-19T19:24:17.405Z,12.49
2022-10-19T19:29:24.993Z,11.02
2022-10-19T19:34:28.722Z,11.25
2022-10-19T19:39:32.715Z,10.88
2022-10-19T19:44:37.079Z,11.62
2022-10-19T19:49:40.285Z,12.59
2022-10-19T19:54:43.302Z,12.41
2022-10-19T19:59:50.833Z,11.38
2022-10-19T20:04:54.352Z,12.36
2022-10-19T20:09:58.100Z,10.96
2022-10-19T20:15:02.493Z,12.21
2022-10-19T20:20:06.824Z,12.24
2022-10-19T20:25:10.432Z,10.35
2022-10-19T20:30:14.810Z,10.43
2022-10-19T20:35:17.913Z,10.55
2022-10-19T20:40:20.972Z,11.79
2022-10-19T20:45:25.235Z,11.99
2022-10-19T20:50:28.085Z,11.96
2022-10-19T20:55:34.234Z,10.69
2022-10-19T21:00:47.825Z,11.39
2022-10-19T21:05:54.217Z,10.79
2022-10-19T21:10:57.514Z,11.73
2022-10-19T21:16:12.658Z,11.07
2022-10-19T21:21:24.065Z,10.97
2022-10-19T21:26:28.263Z,10.07
2022-10-19T21:31:33.156Z,11.82
2022-10-19T21:36:36.353Z,11.29
2022-10-19T21:41:39.350Z,9.84
2022-10-19T21:46:44.234Z,10.51
2022-10-19T21:51:56.834Z,11.49
2022-10-19T21:57:01.436Z,11.48
2022-10-19T22:02:05.816Z,11.31
2022-10-19T22:07:09.314Z,10.99
2022-10-19T22:12:12.034Z,11.51
2022-10-19T22:17:16.280Z,11.47
2022-10-19T22:22:19.073Z,10.31
2022-10-19T22:27:28.011Z,10.99
2022-10-19T22:32:32.827Z,10.82
2022-10-19T22:37:35.972Z,11.38
2022-10-19T22:42:39.063Z,11.15
2022-10-19T22:47:43.357Z,11.00
2022-10-19T22:52:46.115Z,10.96
2022-10-19T22:57:49.279Z,10.88
2022-10-19T23:02:53.477Z,9.38
2022-10-19T23:07:56.365Z,10.81
2022-10-19T23:12:59.281Z,9.38
2022-10-19T23:18:03.401Z,10.13
2022-10-19T23:23:08.983Z,9.19
2022-10-19T23:28:11.761Z,10.28
2022-10-19T23:33:15.863Z,10.61
2022-10-19T23:38:26.548Z,10.02
2022-10-19T23:43:30.067Z,10.14
2022-10-19T23:48:35.347Z,10.48
2022-10-19T23:53:41.268Z,10.62
2022-10-19T23:58:44.708Z,10.43
